aviador You're here:

KSTL Decoded Metar

ST. LOUIS in MO, USA
Report Time2018-07-16 07:51:00
UTC Time2018-07-16 08:31:14
Flight Rules vfr VFR
Wind230° at 03 kt
W.Decomp.*RWY 24: 3.0 kt HW 0.5 kt LCW
RWY 29: 1.5 kt HW 2.6 kt LCW
RWY 30: 1.1 kt HW 2.8 kt LCW
W.Rank230° ranks 26
Current wind is below 230° avg. (8.0)
Visibility9999 m
Phenomena:N/A
Clouds:Few 100 Hf
Expected CloudBase > 800 ft AGL from Temp-Dew spread
CeilingNone
Temp26°C (ISA +12)
Dew Point24°C (89% RH)
QNH1015 hPa
Density Alt2,287 ft
Elevation561 ft
Report Wrong Elevation
Raw Report
KSTL 160751Z 23003KT 10SM FEW100 26/24 A2996 RMK AO2 SLP130
T02610244=

Extra information for KSTL:More info

Metar Taf Metar & Taf Last 4 Metars F.Rules Stats Wind Profile Meteogram Temp Stats Airport Information Weather charts Add Link Nearby VenuesMetar ALERT Operation Metar Decoded Social comments

AIRNAV info for KSTL